Time;durP1;ratioP1;P1;durP2;ratioP2;P2;SDS_P1;SDS_P2;PMS_P1;PMS_P2;Temp;Humidity;BMP_temperature;BMP_pressure;BME280_temperature;BME280_humidity;BME280_pressure;Samples;Min_cycle;Max_cycle;Signal;HPM_P1;HPM_P2
2023/01/24 00:01:12;;;;;;;;;;;;;;;4.15;100.00;103819.88;4993754;28;19941;-63
2023/01/24 00:03:38;;;;;;;;;;;;;;;4.13;100.00;103822.50;5004240;28;19929;-63
2023/01/24 00:06:05;;;;;;;;;;;;;;;4.10;100.00;103825.16;4996736;28;19940;-64
2023/01/24 00:08:31;;;;;;;;;;;;;;;4.09;100.00;103827.78;5000620;28;19929;-63
2023/01/24 00:10:59;;;;;;;;;;;;;;;4.06;100.00;103825.28;5005096;28;19929;-64
2023/01/24 00:13:26;;;;;;;;;;;;;;;4.12;100.00;103830.34;4999005;28;19925;-62
2023/01/24 00:16:01;;;;;;;;;;;;;;;4.12;100.00;103818.19;5002591;28;19972;-64
2023/01/24 00:18:27;;;;;;;;;;;;;;;4.12;100.00;103815.59;4979897;28;19929;-63
2023/01/24 00:20:59;;;;;;;;;;;;;;;4.14;100.00;103815.56;4997450;28;19933;-64
2023/01/24 00:23:25;;;;;;;;;;;;;;;4.19;100.00;103816.31;4995219;28;19986;-63
2023/01/24 00:25:52;;;;;;;;;;;;;;;4.21;100.00;103813.69;4996566;28;20506;-63
2023/01/24 00:28:18;;;;;;;;;;;;;;;4.19;100.00;103802.47;5000657;28;19941;-64
2023/01/24 00:30:45;;;;;;;;;;;;;;;4.21;100.00;103806.75;5002169;28;19929;-63
2023/01/24 00:33:11;;;;;;;;;;;;;;;4.19;100.00;103812.88;5001240;28;19929;-63
2023/01/24 00:35:37;;;;;;;;;;;;;;;4.17;100.00;103802.50;4998335;28;20575;-64
2023/01/24 00:38:04;;;;;;;;;;;;;;;4.17;100.00;103797.31;5008739;28;19930;-63
2023/01/24 00:40:30;;;;;;;;;;;;;;;4.24;100.00;103796.31;5001176;28;19929;-64
2023/01/24 00:42:56;;;;;;;;;;;;;;;4.19;100.00;103802.47;5004147;28;20420;-63
2023/01/24 00:45:23;;;;;;;;;;;;;;;4.16;100.00;103790.41;5002349;28;20370;-63
2023/01/24 00:47:49;;;;;;;;;;;;;;;4.18;100.00;103793.00;4998290;28;20297;-63
2023/01/24 00:50:16;;;;;;;;;;;;;;;4.14;100.00;103792.19;5002275;28;19929;-63
2023/01/24 00:52:42;;;;;;;;;;;;;;;4.13;100.00;103783.53;5003793;28;20654;-63
2023/01/24 00:55:08;;;;;;;;;;;;;;;4.21;100.00;103787.72;5007941;28;19937;-63
2023/01/24 00:57:34;;;;;;;;;;;;;;;4.18;100.00;103786.03;5003590;28;20707;-63
2023/01/24 01:00:01;;;;;;;;;;;;;;;4.16;100.00;103785.22;5007881;28;19936;-63
2023/01/24 01:02:27;;;;;;;;;;;;;;;4.15;100.00;103783.50;4998264;28;19930;-63
2023/01/24 01:04:53;;;;;;;;;;;;;;;4.19;100.00;103776.50;4992955;28;20075;-64
2023/01/24 01:07:21;;;;;;;;;;;;;;;4.20;100.00;103773.88;5008540;28;19929;-64
2023/01/24 01:09:47;;;;;;;;;;;;;;;4.16;100.00;103774.81;4997470;28;19936;-66
2023/01/24 01:12:14;;;;;;;;;;;;;;;4.16;100.00;103777.44;5004934;28;19930;-65
2023/01/24 01:14:40;;;;;;;;;;;;;;;4.10;100.00;103775.81;4993600;28;20369;-65
2023/01/24 01:17:06;;;;;;;;;;;;;;;4.02;100.00;103782.91;4999579;28;19929;-65
2023/01/24 01:19:33;;;;;;;;;;;;;;;4.03;100.00;103788.94;5006657;28;20114;-65
2023/01/24 01:21:59;;;;;;;;;;;;;;;4.06;100.00;103789.75;5000707;28;19925;-65
2023/01/24 01:24:25;;;;;;;;;;;;;;;4.05;100.00;103788.03;4998834;28;19940;-65
2023/01/24 01:26:52;;;;;;;;;;;;;;;4.06;100.00;103796.69;5001677;28;19926;-63
2023/01/24 01:29:18;;;;;;;;;;;;;;;4.10;100.00;103787.94;5003147;28;20685;-63
2023/01/24 01:31:44;;;;;;;;;;;;;;;4.08;100.00;103795.75;4997575;28;19925;-64
2023/01/24 01:34:11;;;;;;;;;;;;;;;4.04;100.00;103791.53;4999060;28;19929;-63
2023/01/24 01:36:37;;;;;;;;;;;;;;;4.08;100.00;103793.16;5008460;28;19929;-65
2023/01/24 01:39:04;;;;;;;;;;;;;;;4.04;100.00;103786.31;4998615;28;19933;-65
2023/01/24 01:41:30;;;;;;;;;;;;;;;4.05;100.00;103792.38;5008516;28;19929;-63
2023/01/24 01:46:46;;;;;;;;;;;;;;;4.07;100.00;103794.03;4997455;28;20659;-63
2023/01/24 01:49:20;;;;;;;;;;;;;;;4.13;100.00;103793.06;4992682;28;20547;-63
2023/01/24 01:51:48;;;;;;;;;;;;;;;4.07;100.00;103795.78;4990349;28;20278;-62
2023/01/24 01:54:18;;;;;;;;;;;;;;;4.07;100.00;103791.44;5006957;28;19929;-63
2023/01/24 01:56:57;;;;;;;;;;;;;;;4.13;100.00;103787.88;4974018;28;20152;-63
2023/01/24 01:59:27;;;;;;;;;;;;;;;4.04;100.00;103795.84;5001788;28;19930;-62
2023/01/24 02:01:54;;;;;;;;;;;;;;;3.96;100.00;103789.06;4997601;28;19934;-63
2023/01/24 02:04:25;;;;;;;;;;;;;;;4.02;100.00;103787.22;5004399;28;19936;-63
2023/01/24 02:07:00;;;;;;;;;;;;;;;3.94;100.00;103784.81;5000896;28;19952;-63
2023/01/24 02:09:28;;;;;;;;;;;;;;;3.93;100.00;103783.94;5003753;28;20020;-62
2023/01/24 02:11:58;;;;;;;;;;;;;;;3.94;100.00;103792.59;4991227;28;20386;-63
2023/01/24 02:17:16;;;;;;;;;;;;;;;3.90;100.00;103784.00;4976820;28;19936;-63
2023/01/24 02:19:51;;;;;;;;;;;;;;;3.92;100.00;103790.03;4988671;28;19929;-63
2023/01/24 02:22:23;;;;;;;;;;;;;;;3.93;100.00;103785.69;5006411;28;19929;-62
2023/01/24 02:24:58;;;;;;;;;;;;;;;3.88;100.00;103788.38;4995457;28;20048;-63
2023/01/24 02:27:24;;;;;;;;;;;;;;;3.83;100.00;103794.53;5001940;28;20626;-62
2023/01/24 02:29:51;;;;;;;;;;;;;;;3.80;100.00;103782.44;5000245;28;19945;-63
2023/01/24 02:32:18;;;;;;;;;;;;;;;3.85;100.00;103778.03;5006710;28;19926;-63
2023/01/24 02:34:44;;;;;;;;;;;;;;;3.87;100.00;103778.88;5000703;28;19929;-63
2023/01/24 02:37:12;;;;;;;;;;;;;;;3.86;100.00;103789.28;5005565;28;19929;-63
2023/01/24 02:39:38;;;;;;;;;;;;;;;3.85;100.00;103791.03;5002463;28;19929;-63
2023/01/24 02:42:10;;;;;;;;;;;;;;;3.85;100.00;103780.63;4994779;28;19946;-63
2023/01/24 02:44:57;;;;;;;;;;;;;;;3.86;100.00;103778.88;5004016;28;20429;-63
2023/01/24 02:47:32;;;;;;;;;;;;;;;3.94;100.00;103780.47;4999203;28;19933;-63
2023/01/24 02:49:59;;;;;;;;;;;;;;;3.97;100.00;103790.78;5003958;28;19936;-62
2023/01/24 02:55:11;;;;;;;;;;;;;;;3.87;100.00;103778.00;4995688;28;20290;-63
2023/01/24 03:00:22;;;;;;;;;;;;;;;3.89;100.00;103778.84;5004900;28;20306;-63
2023/01/24 03:02:48;;;;;;;;;;;;;;;3.90;100.00;103781.41;4997341;28;19925;-62
2023/01/24 03:05:14;;;;;;;;;;;;;;;3.85;100.00;103782.38;4999927;28;19929;-63
2023/01/24 03:07:46;;;;;;;;;;;;;;;3.86;100.00;103771.97;5002707;28;19929;-62
2023/01/24 03:10:14;;;;;;;;;;;;;;;3.86;100.00;103773.69;5000208;28;20410;-63
2023/01/24 03:34:48;;;;;;;;;;;;;;;3.86;100.00;103774.56;4998404;28;20723;-63
2023/01/24 03:37:16;;;;;;;;;;;;;;;3.85;100.00;103767.66;4997836;28;19976;-63
2023/01/24 03:39:58;;;;;;;;;;;;;;;3.85;100.00;103772.00;4984861;28;19940;-63
2023/01/24 03:42:26;;;;;;;;;;;;;;;3.83;100.00;103779.81;5002620;28;20693;-63
2023/01/24 03:44:52;;;;;;;;;;;;;;;3.85;100.00;103772.84;4991926;28;19926;-63
2023/01/24 03:47:19;;;;;;;;;;;;;;;3.84;100.00;103778.94;4995175;28;19930;-64
2023/01/24 03:52:30;;;;;;;;;;;;;;;3.81;100.00;103773.78;4996167;28;19939;-63
2023/01/24 03:54:57;;;;;;;;;;;;;;;3.81;100.00;103767.75;4996761;28;20533;-63
2023/01/24 03:57:25;;;;;;;;;;;;;;;3.82;100.00;103772.88;4996758;28;20181;-63
2023/01/24 03:59:51;;;;;;;;;;;;;;;3.82;100.00;103775.47;5001120;28;20413;-63
2023/01/24 04:02:18;;;;;;;;;;;;;;;3.81;100.00;103772.94;4992592;28;19925;-63
2023/01/24 04:07:29;;;;;;;;;;;;;;;3.76;100.00;103778.22;4991535;28;20278;-62
2023/01/24 04:09:57;;;;;;;;;;;;;;;3.76;100.00;103784.28;5004516;28;19929;-63
2023/01/24 04:12:24;;;;;;;;;;;;;;;3.73;100.00;103781.72;4994569;28;20400;-62
2023/01/24 04:14:50;;;;;;;;;;;;;;;3.67;100.00;103781.84;5000641;28;19939;-63
2023/01/24 04:17:16;;;;;;;;;;;;;;;3.69;100.00;103785.28;5003006;28;19949;-64
2023/01/24 04:19:43;;;;;;;;;;;;;;;3.71;100.00;103783.50;5001931;28;19952;-63
2023/01/24 04:22:09;;;;;;;;;;;;;;;3.69;100.00;103782.66;5003572;28;20610;-63
2023/01/24 04:24:35;;;;;;;;;;;;;;;3.68;100.00;103785.28;4998939;28;19930;-62
2023/01/24 04:27:02;;;;;;;;;;;;;;;3.70;100.00;103788.72;4994761;28;19930;-62
2023/01/24 04:29:28;;;;;;;;;;;;;;;3.64;100.00;103792.28;4995126;28;19930;-62
2023/01/24 04:31:54;;;;;;;;;;;;;;;3.73;100.00;103786.06;5004479;28;19933;-62
2023/01/24 04:34:21;;;;;;;;;;;;;;;3.71;100.00;103799.06;5004835;28;19949;-63
2023/01/24 04:36:47;;;;;;;;;;;;;;;3.73;100.00;103797.31;4995659;28;20401;-62
2023/01/24 04:39:13;;;;;;;;;;;;;;;3.73;100.00;103794.72;5001375;28;19933;-62
2023/01/24 04:41:39;;;;;;;;;;;;;;;3.74;100.00;103795.56;4985779;28;19984;-63
2023/01/24 04:44:06;;;;;;;;;;;;;;;3.72;100.00;103789.53;4994668;28;20010;-62
2023/01/24 04:46:32;;;;;;;;;;;;;;;3.70;100.00;103789.56;4997803;28;20382;-63
2023/01/24 04:48:58;;;;;;;;;;;;;;;3.71;100.00;103793.88;4983146;28;19937;-62
2023/01/24 04:51:25;;;;;;;;;;;;;;;3.74;100.00;103792.97;4998182;28;19933;-62
2023/01/24 04:53:51;;;;;;;;;;;;;;;3.71;100.00;103793.03;4984563;28;19929;-65
2023/01/24 04:56:17;;;;;;;;;;;;;;;3.66;100.00;103785.31;5005271;28;19933;-63
2023/01/24 04:58:44;;;;;;;;;;;;;;;3.63;100.00;103785.38;4994735;28;19936;-63
2023/01/24 05:01:11;;;;;;;;;;;;;;;3.61;100.00;103791.47;5000345;28;20449;-63
2023/01/24 05:03:37;;;;;;;;;;;;;;;3.64;100.00;103791.44;4994084;28;19929;-62
2023/01/24 05:06:03;;;;;;;;;;;;;;;3.62;100.00;103793.19;4998190;28;19925;-64
2023/01/24 05:08:30;;;;;;;;;;;;;;;3.60;100.00;103790.63;4999235;28;19937;-62
2023/01/24 05:11:00;;;;;;;;;;;;;;;3.60;100.00;103793.22;4997624;28;19956;-62
2023/01/24 05:13:26;;;;;;;;;;;;;;;3.61;100.00;103794.94;5002861;28;20377;-63
2023/01/24 05:15:52;;;;;;;;;;;;;;;3.58;100.00;103794.13;4995989;28;19929;-63
2023/01/24 05:18:19;;;;;;;;;;;;;;;3.62;100.00;103794.03;5006391;28;19930;-63
2023/01/24 05:20:45;;;;;;;;;;;;;;;3.60;100.00;103800.16;4988284;28;20012;-62
2023/01/24 05:23:12;;;;;;;;;;;;;;;3.60;100.00;103803.59;5006473;28;20004;-63
2023/01/24 05:25:38;;;;;;;;;;;;;;;3.58;100.00;103805.38;5008539;28;19925;-64
2023/01/24 05:28:05;;;;;;;;;;;;;;;3.58;100.00;103800.19;5002155;28;19937;-63
2023/01/24 05:30:31;;;;;;;;;;;;;;;3.54;100.00;103804.56;5000972;28;19936;-64
2023/01/24 05:32:57;;;;;;;;;;;;;;;3.59;100.00;103808.81;4991328;28;20386;-63
2023/01/24 05:35:24;;;;;;;;;;;;;;;3.55;100.00;103811.47;4995801;28;19935;-62
2023/01/24 05:37:50;;;;;;;;;;;;;;;3.65;100.00;103806.13;4998821;28;19948;-63
2023/01/24 05:40:17;;;;;;;;;;;;;;;3.61;100.00;103804.44;5004835;28;19934;-63
2023/01/24 05:42:43;;;;;;;;;;;;;;;3.54;100.00;103801.97;4992296;28;20307;-63
2023/01/24 05:45:10;;;;;;;;;;;;;;;3.55;100.00;103810.63;4984181;28;20660;-63
2023/01/24 05:47:36;;;;;;;;;;;;;;;3.52;100.00;103813.28;4997613;28;19938;-63
2023/01/24 05:50:03;;;;;;;;;;;;;;;3.48;100.00;103814.22;4994186;28;19980;-62
2023/01/24 05:52:29;;;;;;;;;;;;;;;3.47;100.00;103815.06;5007879;28;19935;-62
2023/01/24 05:54:55;;;;;;;;;;;;;;;3.46;100.00;103821.16;4997273;28;20294;-63
2023/01/24 05:57:22;;;;;;;;;;;;;;;3.47;100.00;103820.28;5004826;28;19934;-62
2023/01/24 05:59:48;;;;;;;;;;;;;;;3.46;100.00;103822.00;5005963;28;19937;-63
2023/01/24 06:02:14;;;;;;;;;;;;;;;3.45;100.00;103815.13;4991083;28;20582;-64
2023/01/24 06:04:41;;;;;;;;;;;;;;;3.47;100.00;103823.75;5007036;28;19933;-63
2023/01/24 06:07:07;;;;;;;;;;;;;;;3.48;100.00;103824.59;4993121;28;20013;-63
2023/01/24 06:09:33;;;;;;;;;;;;;;;3.41;100.00;103821.25;5002067;28;20386;-63
2023/01/24 06:12:00;;;;;;;;;;;;;;;3.44;100.00;103828.13;4999880;28;19929;-63
2023/01/24 06:14:26;;;;;;;;;;;;;;;3.50;100.00;103826.28;4993985;28;19930;-62
2023/01/24 06:16:52;;;;;;;;;;;;;;;3.48;100.00;103827.19;4996802;28;19929;-63
2023/01/24 06:19:19;;;;;;;;;;;;;;;3.41;100.00;103823.84;4995439;28;19936;-63
2023/01/24 06:21:45;;;;;;;;;;;;;;;3.40;100.00;103824.72;5000400;28;19968;-63
2023/01/24 06:24:32;;;;;;;;;;;;;;;3.36;100.00;103829.09;4984666;28;19941;-63
2023/01/24 06:26:58;;;;;;;;;;;;;;;3.44;100.00;103826.38;4991917;28;19929;-63
2023/01/24 06:29:25;;;;;;;;;;;;;;;3.41;100.00;103826.44;4992890;28;19957;-63
2023/01/24 06:32:03;;;;;;;;;;;;;;;3.47;100.00;103830.66;4998887;28;19944;-63
2023/01/24 06:34:53;;;;;;;;;;;;;;;3.48;100.00;103833.22;4997319;28;20013;-63
2023/01/24 06:37:31;;;;;;;;;;;;;;;3.46;100.00;103832.41;5001565;28;19926;-63
2023/01/24 06:39:58;;;;;;;;;;;;;;;3.50;100.00;103838.41;4997414;28;19936;-63
2023/01/24 06:42:24;;;;;;;;;;;;;;;3.47;100.00;103838.44;4991554;28;19932;-63
2023/01/24 06:44:51;;;;;;;;;;;;;;;3.48;100.00;103829.78;4999584;28;20332;-64
2023/01/24 06:47:18;;;;;;;;;;;;;;;3.42;100.00;103828.16;4992256;28;19929;-64
2023/01/24 06:49:44;;;;;;;;;;;;;;;3.46;100.00;103842.78;5007139;28;20464;-64
2023/01/24 06:52:12;;;;;;;;;;;;;;;3.46;100.00;103834.16;4987917;28;20753;-64
2023/01/24 06:54:38;;;;;;;;;;;;;;;3.46;100.00;103839.34;5006005;28;19925;-64
2023/01/24 06:57:04;;;;;;;;;;;;;;;3.39;100.00;103835.97;4993049;28;19941;-63
2023/01/24 06:59:31;;;;;;;;;;;;;;;3.41;100.00;103838.53;4992238;28;19936;-64
2023/01/24 07:01:57;;;;;;;;;;;;;;;3.43;100.00;103849.75;5006742;28;20285;-63
2023/01/24 07:04:24;;;;;;;;;;;;;;;3.40;100.00;103847.22;4999006;28;19929;-64
2023/01/24 07:06:52;;;;;;;;;;;;;;;3.43;100.00;103852.34;5003793;28;19936;-63
2023/01/24 07:09:19;;;;;;;;;;;;;;;3.42;100.00;103848.91;4996468;28;19936;-64
2023/01/24 07:11:49;;;;;;;;;;;;;;;3.43;100.00;103858.41;4992440;28;20240;-63
2023/01/24 07:14:15;;;;;;;;;;;;;;;3.40;100.00;103860.19;4995886;28;19926;-63
2023/01/24 07:16:42;;;;;;;;;;;;;;;3.36;100.00;103852.47;4993893;28;19983;-64
2023/01/24 07:19:16;;;;;;;;;;;;;;;3.31;100.00;103851.69;5000626;28;19932;-64
2023/01/24 07:21:43;;;;;;;;;;;;;;;3.38;100.00;103857.63;4996904;28;19941;-64
2023/01/24 07:24:14;;;;;;;;;;;;;;;3.40;100.00;103865.41;4999370;28;19929;-64
2023/01/24 07:26:40;;;;;;;;;;;;;;;3.39;100.00;103868.84;4990784;28;19957;-63
2023/01/24 07:29:07;;;;;;;;;;;;;;;3.35;100.00;103870.63;4986016;28;19933;-65
2023/01/24 07:31:34;;;;;;;;;;;;;;;3.34;100.00;103876.72;4981018;28;19930;-65
2023/01/24 07:34:00;;;;;;;;;;;;;;;3.40;100.00;103876.63;4998379;28;19952;-64
2023/01/24 07:36:27;;;;;;;;;;;;;;;3.38;100.00;103877.53;4996411;28;20289;-64
2023/01/24 07:38:54;;;;;;;;;;;;;;;3.32;100.00;103883.69;4985555;28;19977;-64
2023/01/24 07:41:20;;;;;;;;;;;;;;;3.28;100.00;103885.47;5000308;28;19936;-65
2023/01/24 07:43:47;;;;;;;;;;;;;;;3.29;100.00;103874.22;4991846;28;19948;-64
2023/01/24 07:46:13;;;;;;;;;;;;;;;3.26;100.00;103882.03;5003370;28;20067;-65
2023/01/24 07:48:40;;;;;;;;;;;;;;;3.24;100.00;103880.34;4986417;28;19929;-64
2023/01/24 07:51:09;;;;;;;;;;;;;;;3.27;100.00;103881.13;4963470;28;20377;-64
2023/01/24 07:53:35;;;;;;;;;;;;;;;3.22;100.00;103882.97;4987670;28;19930;-63
2023/01/24 07:56:02;;;;;;;;;;;;;;;3.19;100.00;103885.59;4986320;28;20136;-64
2023/01/24 07:58:29;;;;;;;;;;;;;;;3.19;100.00;103888.19;5000427;28;20016;-65
2023/01/24 08:00:56;;;;;;;;;;;;;;;3.13;100.00;103894.31;4988055;28;19980;-65
2023/01/24 08:03:23;;;;;;;;;;;;;;;3.25;100.00;103889.84;4987191;28;19980;-65
2023/01/24 08:05:49;;;;;;;;;;;;;;;3.22;100.00;103888.16;4991803;28;20451;-66
2023/01/24 08:08:15;;;;;;;;;;;;;;;3.17;100.00;103893.41;4973423;28;19936;-64
2023/01/24 08:10:41;;;;;;;;;;;;;;;3.32;100.00;103894.91;5004906;28;19952;-64
2023/01/24 08:13:08;;;;;;;;;;;;;;;3.31;100.00;103898.41;5001764;28;19930;-64
2023/01/24 08:15:35;;;;;;;;;;;;;;;3.32;100.00;103901.84;4999412;28;19937;-65
2023/01/24 08:18:02;;;;;;;;;;;;;;;3.35;100.00;103907.84;4982672;28;19925;-65
2023/01/24 08:20:29;;;;;;;;;;;;;;;3.36;100.00;103906.09;4998602;28;20036;-64
2023/01/24 08:22:55;;;;;;;;;;;;;;;3.30;100.00;103903.59;4993940;28;19936;-65
2023/01/24 08:25:24;;;;;;;;;;;;;;;3.29;100.00;103900.16;4970273;28;19936;-64
2023/01/24 08:27:51;;;;;;;;;;;;;;;3.27;100.00;103903.63;5003898;28;19929;-66
2023/01/24 08:30:18;;;;;;;;;;;;;;;3.33;100.00;103900.94;4994874;28;19929;-65
2023/01/24 08:32:44;;;;;;;;;;;;;;;3.32;100.00;103900.09;5000543;28;20285;-66
2023/01/24 08:35:10;;;;;;;;;;;;;;;3.30;100.00;103904.44;4988115;28;19946;-65
2023/01/24 08:37:37;;;;;;;;;;;;;;;3.29;100.00;103905.34;4992944;28;19936;-65
2023/01/24 08:40:04;;;;;;;;;;;;;;;3.32;100.00;103914.81;4991111;28;19929;-64
2023/01/24 08:42:30;;;;;;;;;;;;;;;3.27;100.00;103912.25;4978850;28;19980;-64
2023/01/24 08:44:57;;;;;;;;;;;;;;;3.25;100.00;103918.38;4963738;28;19933;-65
2023/01/24 08:47:23;;;;;;;;;;;;;;;3.25;100.00;103914.03;4987879;28;19965;-65
2023/01/24 08:49:51;;;;;;;;;;;;;;;3.28;100.00;103908.81;4979714;28;19925;-65
2023/01/24 08:52:17;;;;;;;;;;;;;;;3.33;100.00;103919.09;4977259;28;20642;-64
2023/01/24 08:54:44;;;;;;;;;;;;;;;3.33;100.00;103913.91;4986362;28;19936;-64
2023/01/24 08:57:10;;;;;;;;;;;;;;;3.33;100.00;103921.69;4986932;28;19930;-64
2023/01/24 08:59:36;;;;;;;;;;;;;;;3.27;100.00;103917.47;4995812;28;19968;-64
2023/01/24 09:02:03;;;;;;;;;;;;;;;3.34;100.00;103926.88;5002378;28;19929;-64
2023/01/24 09:04:30;;;;;;;;;;;;;;;3.36;100.00;103926.84;4985133;28;19937;-63
2023/01/24 09:06:57;;;;;;;;;;;;;;;3.30;100.00;103935.59;4986663;28;19933;-65
2023/01/24 09:09:25;;;;;;;;;;;;;;;3.32;100.00;103928.63;4986124;28;20234;-64
2023/01/24 09:11:53;;;;;;;;;;;;;;;3.33;100.00;103932.97;4982932;28;19991;-65
2023/01/24 09:14:19;;;;;;;;;;;;;;;3.35;100.00;103941.56;5001318;28;19929;-63
2023/01/24 09:16:46;;;;;;;;;;;;;;;3.39;100.00;103934.56;4994017;28;19934;-66
2023/01/24 09:19:12;;;;;;;;;;;;;;;3.35;100.00;103931.19;5005103;28;19956;-65
2023/01/24 09:21:39;;;;;;;;;;;;;;;3.40;100.00;103935.47;4996056;28;19996;-65
2023/01/24 09:24:06;;;;;;;;;;;;;;;3.44;100.00;103940.56;5000973;28;19937;-64
2023/01/24 09:26:32;;;;;;;;;;;;;;;3.46;100.00;103944.00;5006322;28;19936;-65
2023/01/24 09:28:59;;;;;;;;;;;;;;;3.43;100.00;103938.88;4993620;28;20323;-64
2023/01/24 09:31:25;;;;;;;;;;;;;;;3.48;100.00;103941.38;4986376;28;19925;-63
2023/01/24 09:33:52;;;;;;;;;;;;;;;3.48;100.00;103943.97;4995288;28;19936;-64
2023/01/24 09:36:25;;;;;;;;;;;;;;;3.58;100.00;103942.94;5000678;28;19930;-64
2023/01/24 09:38:52;;;;;;;;;;;;;;;3.56;100.00;103944.72;4999752;28;19979;-64
2023/01/24 09:41:37;;;;;;;;;;;;;;;3.54;100.00;103943.88;5002774;28;20322;-65
2023/01/24 09:44:11;;;;;;;;;;;;;;;3.61;100.00;103947.22;5000718;28;19933;-65
2023/01/24 09:46:40;;;;;;;;;;;;;;;3.63;100.00;103945.50;5002297;28;19948;-64
2023/01/24 09:49:08;;;;;;;;;;;;;;;3.57;100.00;103938.66;5003676;28;19942;-65
2023/01/24 09:51:36;;;;;;;;;;;;;;;3.59;100.00;103949.88;5001134;28;19933;-64
2023/01/24 09:54:05;;;;;;;;;;;;;;;3.57;100.00;103956.81;4984578;28;20385;-64
2023/01/24 09:56:37;;;;;;;;;;;;;;;3.57;100.00;103954.22;4996157;28;20449;-64
2023/01/24 09:59:10;;;;;;;;;;;;;;;3.57;100.00;103959.41;5003811;28;20029;-64
2023/01/24 10:01:40;;;;;;;;;;;;;;;3.56;100.00;103961.13;5003925;28;19953;-64
2023/01/24 10:04:13;;;;;;;;;;;;;;;3.60;100.00;103966.28;5004820;28;19975;-64
2023/01/24 10:06:42;;;;;;;;;;;;;;;3.62;100.00;103961.94;4997847;28;20584;-65
2023/01/24 10:09:23;;;;;;;;;;;;;;;3.58;100.00;103963.72;4993183;28;19926;-65
2023/01/24 10:11:58;;;;;;;;;;;;;;;3.65;100.00;103959.31;4998237;28;19929;-64
2023/01/24 10:14:31;;;;;;;;;;;;;;;3.61;100.00;103963.69;4993455;28;19973;-64
2023/01/24 10:17:03;;;;;;;;;;;;;;;3.55;100.00;103958.59;4999711;28;19940;-65
2023/01/24 10:19:36;;;;;;;;;;;;;;;3.59;100.00;103960.25;4988844;28;19956;-64
2023/01/24 10:22:16;;;;;;;;;;;;;;;3.59;100.00;103956.78;5002986;28;19987;-64
2023/01/24 10:24:51;;;;;;;;;;;;;;;3.63;100.00;103956.72;4999596;28;20368;-64
2023/01/24 10:27:26;;;;;;;;;;;;;;;3.58;100.00;103965.47;5004473;28;19945;-64
2023/01/24 10:29:57;;;;;;;;;;;;;;;3.59;100.00;103956.78;5003960;28;19933;-63
2023/01/24 10:32:30;;;;;;;;;;;;;;;3.50;100.00;103957.78;4992650;28;19929;-62
2023/01/24 10:34:59;;;;;;;;;;;;;;;3.61;100.00;103955.88;4998948;28;19926;-63
2023/01/24 10:37:27;;;;;;;;;;;;;;;3.57;100.00;103956.81;4996539;28;19929;-63
2023/01/24 10:39:53;;;;;;;;;;;;;;;3.55;100.00;103949.06;5006831;28;19929;-63
2023/01/24 10:42:26;;;;;;;;;;;;;;;3.64;100.00;103953.22;4991572;28;20318;-63
2023/01/24 10:44:54;;;;;;;;;;;;;;;3.68;100.00;103951.44;5000723;28;19925;-63
2023/01/24 10:47:26;;;;;;;;;;;;;;;3.69;100.00;103946.22;4999402;28;19926;-63
2023/01/24 10:50:00;;;;;;;;;;;;;;;3.76;100.00;103946.97;5001030;28;19933;-64
2023/01/24 10:52:27;;;;;;;;;;;;;;;3.80;100.00;103950.38;5007936;28;19933;-63
2023/01/24 10:54:57;;;;;;;;;;;;;;;3.79;100.00;103948.69;4998279;28;19929;-65
2023/01/24 10:57:30;;;;;;;;;;;;;;;3.80;100.00;103947.78;5003528;28;20012;-65
2023/01/24 11:00:15;;;;;;;;;;;;;;;3.81;100.00;103937.38;4988642;28;19952;-65
2023/01/24 11:02:42;;;;;;;;;;;;;;;3.83;100.00;103942.56;4998354;28;19925;-65
2023/01/24 11:05:11;;;;;;;;;;;;;;;3.81;100.00;103941.72;4999981;28;19976;-64
2023/01/24 11:07:43;;;;;;;;;;;;;;;3.86;100.00;103937.28;5006316;28;19940;-64
2023/01/24 11:10:14;;;;;;;;;;;;;;;3.85;100.00;103933.00;5006961;28;20349;-64
2023/01/24 11:12:47;;;;;;;;;;;;;;;3.81;100.00;103934.78;4988192;28;19965;-64
2023/01/24 11:15:18;;;;;;;;;;;;;;;3.81;100.00;103928.75;5000917;28;19929;-64
2023/01/24 11:17:44;;;;;;;;;;;;;;;3.80;100.00;103921.81;4998213;28;19929;-64
2023/01/24 11:20:22;;;;;;;;;;;;;;;3.81;100.00;103924.41;5005295;28;20016;-64
2023/01/24 11:22:49;;;;;;;;;;;;;;;3.87;100.00;103923.44;4996706;28;19976;-64
2023/01/24 11:25:15;;;;;;;;;;;;;;;3.88;100.00;103919.94;5006434;28;19925;-64
2023/01/24 11:27:46;;;;;;;;;;;;;;;3.85;100.00;103918.28;4990068;28;19933;-63
2023/01/24 11:30:12;;;;;;;;;;;;;;;3.91;100.00;103912.97;4992918;28;19929;-63
2023/01/24 11:32:54;;;;;;;;;;;;;;;3.97;100.00;103918.03;5005114;28;19934;-64
2023/01/24 11:35:20;;;;;;;;;;;;;;;3.93;100.00;103916.38;4992321;28;19929;-64
2023/01/24 11:38:06;;;;;;;;;;;;;;;3.94;100.00;103905.13;5006877;28;20289;-64
2023/01/24 11:40:36;;;;;;;;;;;;;;;3.94;100.00;103906.88;4996642;28;19952;-64
2023/01/24 11:43:24;;;;;;;;;;;;;;;3.98;100.00;103900.75;5001219;28;20060;-64
2023/01/24 11:46:03;;;;;;;;;;;;;;;4.00;100.00;103901.56;5000110;28;20316;-64
2023/01/24 11:48:35;;;;;;;;;;;;;;;3.90;100.00;103906.06;5001176;28;20016;-64
2023/01/24 11:51:09;;;;;;;;;;;;;;;3.99;100.00;103901.59;4997914;28;19926;-65
2023/01/24 11:53:42;;;;;;;;;;;;;;;3.85;100.00;103901.84;5005665;28;20386;-65
2023/01/24 11:56:21;;;;;;;;;;;;;;;3.90;100.00;103892.22;4995349;28;19983;-64
2023/01/24 11:58:51;;;;;;;;;;;;;;;3.92;100.00;103888.72;5003274;28;19976;-64
2023/01/24 12:01:25;;;;;;;;;;;;;;;3.94;100.00;103881.75;5006658;28;19930;-64
2023/01/24 12:03:59;;;;;;;;;;;;;;;3.91;100.00;103874.00;4999224;28;19972;-65
2023/01/24 12:06:45;;;;;;;;;;;;;;;3.99;100.00;103873.03;5002149;28;19972;-64
2023/01/24 12:09:17;;;;;;;;;;;;;;;3.87;100.00;103868.91;4950275;28;19926;-64
2023/01/24 12:11:48;;;;;;;;;;;;;;;3.91;100.00;103871.41;5002038;28;20016;-65
2023/01/24 12:14:30;;;;;;;;;;;;;;;3.87;100.00;103872.34;4998032;28;19929;-64
2023/01/24 12:17:15;;;;;;;;;;;;;;;3.98;100.00;103866.97;4999230;28;20061;-64
2023/01/24 12:20:07;;;;;;;;;;;;;;;4.05;100.00;103867.69;4998198;28;19983;-64
2023/01/24 12:22:36;;;;;;;;;;;;;;;4.07;100.00;103869.38;4996349;28;19975;-64
2023/01/24 12:25:10;;;;;;;;;;;;;;;4.08;100.00;103863.31;4996232;28;19929;-64
2023/01/24 12:27:36;;;;;;;;;;;;;;;4.11;100.00;103854.59;5009322;28;19929;-64
2023/01/24 12:30:07;;;;;;;;;;;;;;;4.07;100.00;103858.97;5001907;28;19936;-65
2023/01/24 12:32:42;;;;;;;;;;;;;;;4.11;100.00;103854.59;5004663;28;19933;-64
2023/01/24 12:35:23;;;;;;;;;;;;;;;4.15;100.00;103854.50;5009067;28;20515;-64
2023/01/24 12:37:56;;;;;;;;;;;;;;;4.17;100.00;103846.66;5000110;28;20465;-64
2023/01/24 12:40:46;;;;;;;;;;;;;;;4.21;100.00;103837.94;5002839;28;19936;-63
2023/01/24 12:43:26;;;;;;;;;;;;;;;4.24;100.00;103843.06;5003771;28;19930;-64
2023/01/24 12:46:01;;;;;;;;;;;;;;;4.25;100.00;103844.78;5006609;28;19925;-64
2023/01/24 12:48:38;;;;;;;;;;;;;;;4.24;100.00;103847.44;4997919;28;20003;-64
2023/01/24 12:51:15;;;;;;;;;;;;;;;4.20;100.00;103856.16;5004452;28;19925;-64
2023/01/24 12:53:52;;;;;;;;;;;;;;;4.21;100.00;103845.72;4995830;28;19933;-64
2023/01/24 12:56:23;;;;;;;;;;;;;;;4.24;100.00;103852.63;5009503;28;19930;-64
2023/01/24 12:58:51;;;;;;;;;;;;;;;4.22;100.00;103851.81;5006829;28;19972;-64
2023/01/24 13:01:23;;;;;;;;;;;;;;;4.20;100.00;103843.19;5007630;28;19929;-64
2023/01/24 13:03:54;;;;;;;;;;;;;;;4.21;100.00;103847.47;5006574;28;20307;-64
2023/01/24 13:06:39;;;;;;;;;;;;;;;4.25;100.00;103847.38;4993987;28;19954;-65
2023/01/24 13:09:30;;;;;;;;;;;;;;;4.23;100.00;103835.31;5007267;28;19929;-64
2023/01/24 13:11:57;;;;;;;;;;;;;;;4.21;100.00;103830.13;5002427;28;19940;-64
2023/01/24 13:14:28;;;;;;;;;;;;;;;4.15;100.00;103833.72;5001978;28;19926;-64
2023/01/24 13:17:04;;;;;;;;;;;;;;;4.10;100.00;103834.72;5003119;28;19930;-64
2023/01/24 13:19:50;;;;;;;;;;;;;;;4.01;100.00;103827.94;5003291;28;19929;-64
2023/01/24 13:22:22;;;;;;;;;;;;;;;4.06;100.00;103833.06;4966245;28;20008;-64
2023/01/24 13:24:58;;;;;;;;;;;;;;;4.11;100.00;103834.66;5009163;28;19926;-64